• Join FlightAware (Why Join?)
  • Login
  • US Flag 
08:43PM EDT


 

Airport Tracker/Info


-or-


 

Live Flight TrackerFlight Track Log ✈ N52712 ✈ 26-Apr-2013 ✈ KBED - KBTV

Flight Track Log - Related Links

Times and Time Zones

All times are in EDT time to prevent confusion due to time zone crossing. See the N52712 flight status page for this flight to view local times or setup timezone preferences in your user account.

Time Position Orientation Groundspeed Altitude Reporting Facility
EDT Latitude Longitude Course Direction KTS MPH feet Rate Location/Type
12:09PM 42.4667 -71.2833 30° Northeast 35 40 800  Level KA90
12:09PM 42.4667 -71.2667 90° East 64 74 1,400 900 Climbing KA90
12:10PM 42.5000 -71.2500 20° North 71 82 2,400 780 Climbing KA90
12:11PM 42.5167 -71.2333 36° Northeast 71 82 3,100 660 Climbing KA90
12:13PM 42.5333 -71.2167 36° Northeast 71 82 3,900 660 Climbing KA90
12:13PM 42.5500 -71.2000 36° Northeast 74 85 4,500 600 Climbing KA90
12:14PM 42.5667 -71.1833 36° Northeast 86 99 5,000 300 Climbing KA90
12:15PM 42.6233 -71.1615 30° Northeast  Level FlightAware Approximate
12:15PM 42.6000 -71.1667 20° North 121 139 5,200  Level KA90
12:16PM 42.6167 -71.1333 56° Northeast 128 147 5,100 -120 Descending KA90
12:17PM 42.6500 -71.1167 20° North 113 130 5,000 -60 Descending KA90
12:18PM 42.6833 -71.1000 20° North 116 133 5,000 60 Level KA90
12:19PM 42.7000 -71.0667 56° Northeast 118 136 5,200 60 Climbing KA90
12:20PM 42.7333 -71.0500 20° North 125 144 5,200  Level KA90
12:21PM 42.7667 -71.0333 20° North 123 142 5,200 -60 Level KA90
12:22PM 42.8000 -71.0000 36° Northeast 119 137 5,100 -60 Descending KA90
12:23PM 42.8333 -70.9833 20° North 120 138 5,100  Level KA90
12:24PM 42.8500 -70.9667 36° Northeast 120 138 5,100  Level KA90
12:25PM 42.8833 -70.9500 20° North 118 136 5,100  Level KA90
12:26PM 42.9167 -70.9167 36° Northeast 118 136 5,100  Level KA90
12:27PM 42.9500 -70.9000 20° North 119 137 5,100  Level KA90
12:28PM 42.9667 -70.8667 56° Northeast 118 136 5,100  Level KA90
12:29PM 43.0000 -70.8500 20° North 118 136 5,100  Level KA90
12:30PM 43.0333 -70.8333 20° North 117 135 5,100  Level KA90
12:32PM 43.0688 -70.8215 14° North  Level FlightAware Approximate
12:39PM 43.2710 -70.7012 24° Northeast  Level FlightAware Approximate
12:40PM 43.2995 -70.6836 24° Northeast  Level FlightAware Approximate
12:41PM 43.3273 -70.6638 27° Northeast  Level FlightAware Approximate
12:42PM 43.3551 -70.6440 27° Northeast  Level FlightAware Approximate
12:43PM 43.3829 -70.6242 27° Northeast  Level FlightAware Approximate
12:44PM 43.4106 -70.6043 27° Northeast  Level FlightAware Approximate
12:45PM 43.4373 -70.5819 33° Northeast  Level FlightAware Approximate
12:46PM 43.4637 -70.5587 33° Northeast  Level FlightAware Approximate
12:47PM 43.4901 -70.5355 33° Northeast  Level FlightAware Approximate
12:48PM 43.5164 -70.5122 33° Northeast  Level FlightAware Approximate
12:49PM 43.5428 -70.4890 33° Northeast  Level FlightAware Approximate
12:50PM 43.5691 -70.4657 33° Northeast  Level FlightAware Approximate
12:51PM 43.5955 -70.4424 33° Northeast  Level FlightAware Approximate
12:52PM 43.6218 -70.4191 33° Northeast  Level FlightAware Approximate
12:53PM 43.6482 -70.3957 33° Northeast  Level FlightAware Approximate
12:54PM 43.6745 -70.3724 33° Northeast  Level FlightAware Approximate
12:55PM 43.7009 -70.3490 33° Northeast  Level FlightAware Approximate
12:56PM 43.7272 -70.3256 33° Northeast  Level FlightAware Approximate
12:57PM 43.7535 -70.3021 33° Northeast  Level FlightAware Approximate
12:58PM 43.7798 -70.2787 33° Northeast  Level FlightAware Approximate
12:59PM 43.8061 -70.2552 33° Northeast  Level FlightAware Approximate
01:00PM 43.8325 -70.2318 33° Northeast  Level FlightAware Approximate
01:01PM 43.8587 -70.2083 33° Northeast  Level FlightAware Approximate
01:02PM 43.8851 -70.1848 33° Northeast  Level FlightAware Approximate
01:03PM 43.9114 -70.1612 33° Northeast  Level FlightAware Approximate
01:04PM 43.9376 -70.1376 33° Northeast  Level FlightAware Approximate
01:05PM 43.9639 -70.1141 33° Northeast  Level FlightAware Approximate
01:06PM 43.9902 -70.0905 33° Northeast  Level FlightAware Approximate
01:07PM 44.0165 -70.0668 33° Northeast  Level FlightAware Approximate
01:08PM 44.0424 -70.0425 34° Northeast  Level FlightAware Approximate
01:09PM 44.0683 -70.0181 34° Northeast  Level FlightAware Approximate
01:10PM 44.0943 -69.9937 34° Northeast  Level FlightAware Approximate
01:11PM 44.1202 -69.9693 34° Northeast  Level FlightAware Approximate
01:12PM 44.1461 -69.9449 34° Northeast  Level FlightAware Approximate
01:13PM 44.1720 -69.9204 34° Northeast  Level FlightAware Approximate
01:14PM 44.1979 -69.8959 34° Northeast  Level FlightAware Approximate
01:15PM 44.2238 -69.8714 34° Northeast  Level FlightAware Approximate
01:16PM 44.2497 -69.8469 34° Northeast  Level FlightAware Approximate
01:17PM 44.2756 -69.8223 34° Northeast  Level FlightAware Approximate
01:18PM 44.3015 -69.7978 34° Northeast  Level FlightAware Approximate
01:19PM 44.3176 -69.8013 274° West  Level FlightAware Approximate
01:20PM 44.3198 -69.8450 274° West  Level FlightAware Approximate
01:21PM 44.3219 -69.8886 274° West  Level FlightAware Approximate
01:22PM 44.3241 -69.9322 274° West  Level FlightAware Approximate
01:23PM 44.3262 -69.9759 274° West  Level FlightAware Approximate
01:24PM 44.3283 -70.0195 274° West  Level FlightAware Approximate
01:25PM 44.3304 -70.0632 274° West  Level FlightAware Approximate
01:26PM 44.3325 -70.1068 274° West  Level FlightAware Approximate
01:27PM 44.3345 -70.1505 274° West  Level FlightAware Approximate
01:28PM 44.3366 -70.1941 274° West  Level FlightAware Approximate
01:29PM 44.3386 -70.2378 274° West  Level FlightAware Approximate
01:30PM 44.3406 -70.2814 274° West  Level FlightAware Approximate
01:31PM 44.3426 -70.3251 274° West  Level FlightAware Approximate
01:32PM 44.3446 -70.3688 274° West  Level FlightAware Approximate
01:33PM 44.3466 -70.4124 274° West  Level FlightAware Approximate
01:34PM 44.3485 -70.4561 274° West  Level FlightAware Approximate
01:35PM 44.3504 -70.4998 274° West  Level FlightAware Approximate
01:36PM 44.3524 -70.5435 274° West  Level FlightAware Approximate
01:37PM 44.3543 -70.5872 273° West  Level FlightAware Approximate
01:37PM 44.3778 -70.2325 273° West 118 136 8,500  Level Boston Center
01:38PM 44.3561 -70.6308 273° West  Level FlightAware Approximate
01:38PM 44.3783 -70.2703 271° West 111 128 8,500  Level Boston Center
01:39PM 44.3580 -70.6745 273° West  Level FlightAware Approximate
01:39PM 44.3811 -70.3108 275° West 111 128 8,500  Level Boston Center
01:40PM 44.3599 -70.7182 273° West  Level FlightAware Approximate
01:40PM 44.3800 -70.3575 268° West 111 128 8,500  Level Boston Center
01:41PM 44.3617 -70.7619 273° West  Level FlightAware Approximate
01:41PM 44.3806 -70.3953 271° West 111 128 8,600  Level Boston Center
01:42PM 44.3635 -70.8056 273° West  Level FlightAware Approximate
01:42PM 44.3836 -70.4417 275° West 111 128 8,500  Level Boston Center
01:43PM 44.3842 -70.4792 271° West 111 128 8,400 -60 Descending Boston Center
01:44PM 44.3850 -70.5228 272° West 108 124 8,400  Level Boston Center
01:45PM 44.3856 -70.5606 271° West 103 119 8,400  Level Boston Center
01:46PM 44.3883 -70.6042 275° West 103 119 8,400  Level Boston Center
01:47PM 44.3889 -70.6447 271° West 103 119 8,400  Level Boston Center
01:48PM 44.3939 -70.6883 279° West 103 119 8,400  Level Boston Center
01:49PM 44.3967 -70.7289 275° West 103 119 8,400  Level Boston Center
01:50PM 44.3972 -70.7753 271° West 103 119 8,400  Level Boston Center
01:51PM 44.3978 -70.8189 271° West 103 119 8,400  Level Boston Center
01:52PM 44.3986 -70.8653 271° West 108 124 8,400  Level Boston Center
01:53PM 44.4011 -70.9117 274° West 119 137 8,400  Level Boston Center
01:54PM 44.4039 -70.9553 275° West 119 137 8,400  Level Boston Center
01:55PM 44.4044 -70.9989 271° West 119 137 8,400  Level Boston Center
01:56PM 44.4050 -71.0425 271° West 119 137 8,400  Level Boston Center
01:57PM 44.4075 -71.0889 274° West 119 137 8,400  Level Boston Center
01:58PM 44.4103 -71.1325 275° West 119 137 8,400  Level Boston Center
01:59PM 44.4128 -71.1700 275° West 119 137 8,400  Level Boston Center
02:00PM 44.4131 -71.2136 271° West 119 137 8,400  Level Boston Center
02:01PM 44.4158 -71.2600 275° West 119 137 8,400  Level Boston Center
02:02PM 44.4161 -71.3067 270° West 124 143 8,400  Level Boston Center
02:03PM 44.4208 -71.3500 279° West 124 143 8,400  Level Boston Center
02:04PM 44.4233 -71.3967 274° West 119 137 8,400  Level Boston Center
02:05PM 44.4236 -71.4372 271° West 119 137 8,400  Level Boston Center
02:06PM 44.4283 -71.4836 278° West 119 137 8,400  Level Boston Center
02:07PM 44.4306 -71.5244 274° West 125 144 8,400  Level Boston Center
02:08PM 44.4331 -71.5681 275° West 120 138 8,400  Level Boston Center
02:09PM 44.4353 -71.6086 274° West 120 138 8,400  Level Boston Center
02:10PM 44.4358 -71.6550 271° West 120 138 8,400  Level Boston Center
02:11PM 44.4361 -71.6986 271° West 120 138 8,400  Level Boston Center
02:12PM 44.4342 -71.7394 266° West 120 138 8,400  Level Boston Center
02:13PM 44.4367 -71.7917 274° West 120 138 8,400  Level Boston Center
02:14PM 44.4369 -71.8353 271° West 120 138 8,400  Level Boston Center
02:15PM 44.4392 -71.8819 274° West 120 138 8,400  Level Boston Center
02:16PM 44.4394 -71.9256 271° West 120 138 8,400  Level Boston Center
02:17PM 44.4394 -71.9692 270° West 120 138 8,400  Level Boston Center
02:18PM 44.4419 -72.0214 274° West 120 138 8,400  Level Boston Center
02:19PM 44.4442 -72.0650 274° West 120 138 8,400  Level Boston Center
02:20PM 44.4464 -72.1086 274° West 120 138 8,400  Level Boston Center
02:21PM 44.4486 -72.1608 273° West 120 138 8,400  Level Boston Center
02:22PM 44.4486 -72.2075 270° West 120 138 8,400 -120 Level Boston Center
02:23PM 44.4508 -72.2511 274° West 120 138 8,200 -420 Descending Boston Center
02:24PM 44.4528 -72.2975 273° West 120 138 7,600 -600 Descending Boston Center
02:25PM 44.4531 -72.3469 270° West 125 144 7,000 -300 Descending Boston Center
02:26PM 44.4531 -72.3906 270° West 120 138 7,000  Level Boston Center
02:27PM 44.4531 -72.4400 270° West 120 138 7,100  Climbing Boston Center
02:28PM 44.4550 -72.4808 274° West 114 131 7,100  Level Boston Center
02:30PM 44.4550 -72.5217 270° West 114 131 7,100  Level Boston Center
02:31PM 44.4572 -72.5681 274° West 114 131 7,100  Level Boston Center
02:32PM 44.4569 -72.6117 270° West 114 131 7,100  Level Boston Center
02:33PM 44.4592 -72.6553 274° West 114 131 7,100  Level Boston Center
02:34PM 44.4611 -72.7019 273° West 120 138 7,100 -240 Level Boston Center
02:35PM 44.4361 -72.7164 202° Southwest 96 110 6,700 -540 Descending Boston Center
02:36PM 44.4089 -72.7336 204° Southwest 107 123 6,100 -300 Descending Boston Center
02:37PM 44.3817 -72.7508 204° Southwest 112 129 6,100 -60 Level Boston Center
02:38PM 44.3506 -72.7594 191° South 107 123 6,000  Descending Boston Center
02:39PM 44.3256 -72.7767 206° Southwest 107 123 6,100  Climbing Boston Center
02:40PM 44.2983 -72.7794 184° South 107 123 6,100 1,140 Level Boston Center
02:41PM 44.2669 -72.7850 187° South 107 123 8,400  Climbing Boston Center
02:42PM 44.2567 -72.8139 244° Southwest 90 104 6,200 -1,320 Descending Boston Center
02:43PM 44.2814 -72.8403 323° Northwest 99 114 5,800 -420 Descending Boston Center
02:45PM 44.3182 -72.9016 310° West  Level FlightAware Approximate
02:52PM 44.4514 -73.1243 310° West  Level FlightAware Approximate
02:53PM 44.4667 -73.1500 307° West  Level FlightAware Approximate
02:54PM 44.4719 -73.1533 307° West  Level Estimated
02:55PM 44.4667 -73.1500 307° West  Level FlightAware Approximate
02:56PM 44.4719 -73.1533 307° West  Level Estimated
02:57PM 44.4667 -73.1500 307° West  Level FlightAware Approximate
02:58PM 44.4719 -73.1533 307° West  Level Estimated